Terminal Aerodrome Forecast
Issued by NWS

Home | Current Version | Previous Version | Text Only | Print | Product List | Glossary On
Versions: 1 2 3 4 5 6 7 8 9 10 11 12 13
000
FTUS42 KMHX 211100
TAFOAJ
TAF
KOAJ 211134Z 2112/2212 02006KT P6SM BKN080
     FM211600 03006KT P6SM OVC050
     FM220200 03008KT P6SM VCSH OVC020
     FM220600 03008KT P6SM -RA OVC007
      AMD LTD TO CLD VIS AND WIND=

USA.gov is the U.S. government's official web portal to all federal, state and local government web resources and services.